sensor_id;sensor_type;location;lat;lon;timestamp;temperature;humidity
69189;DHT22;56302;52.322;5.926;2023-04-28T00:01:52;7.70;68.50
69189;DHT22;56302;52.322;5.926;2023-04-28T00:04:17;7.70;68.30
69189;DHT22;56302;52.322;5.926;2023-04-28T00:06:43;7.60;69.40
69189;DHT22;56302;52.322;5.926;2023-04-28T00:09:09;7.60;69.60
69189;DHT22;56302;52.322;5.926;2023-04-28T00:11:36;7.60;69.30
69189;DHT22;56302;52.322;5.926;2023-04-28T00:14:02;7.60;69.70
69189;DHT22;56302;52.322;5.926;2023-04-28T00:16:27;7.60;69.60
69189;DHT22;56302;52.322;5.926;2023-04-28T00:18:53;7.50;69.80
69189;DHT22;56302;52.322;5.926;2023-04-28T00:21:18;7.50;70.00
69189;DHT22;56302;52.322;5.926;2023-04-28T00:23:44;7.50;70.10
69189;DHT22;56302;52.322;5.926;2023-04-28T00:26:10;7.50;70.10
69189;DHT22;56302;52.322;5.926;2023-04-28T00:28:36;7.50;69.80
69189;DHT22;56302;52.322;5.926;2023-04-28T00:31:09;7.50;69.90
69189;DHT22;56302;52.322;5.926;2023-04-28T00:33:35;7.50;70.30
69189;DHT22;56302;52.322;5.926;2023-04-28T00:36:01;7.50;70.30
69189;DHT22;56302;52.322;5.926;2023-04-28T00:38:27;7.50;70.30
69189;DHT22;56302;52.322;5.926;2023-04-28T00:40:52;7.40;70.30
69189;DHT22;56302;52.322;5.926;2023-04-28T00:43:18;7.50;70.30
69189;DHT22;56302;52.322;5.926;2023-04-28T00:45:43;7.50;70.00
69189;DHT22;56302;52.322;5.926;2023-04-28T00:48:09;7.40;69.90
69189;DHT22;56302;52.322;5.926;2023-04-28T00:50:35;7.40;70.80
69189;DHT22;56302;52.322;5.926;2023-04-28T00:53:01;7.30;70.90
69189;DHT22;56302;52.322;5.926;2023-04-28T00:55:30;7.30;71.30
69189;DHT22;56302;52.322;5.926;2023-04-28T00:57:58;7.30;71.20
69189;DHT22;56302;52.322;5.926;2023-04-28T01:00:24;7.20;71.30
69189;DHT22;56302;52.322;5.926;2023-04-28T01:02:51;7.20;71.40
69189;DHT22;56302;52.322;5.926;2023-04-28T01:05:16;7.20;71.50
69189;DHT22;56302;52.322;5.926;2023-04-28T01:07:42;7.10;71.80
69189;DHT22;56302;52.322;5.926;2023-04-28T01:10:08;7.10;71.80
69189;DHT22;56302;52.322;5.926;2023-04-28T01:12:33;7.10;72.00
69189;DHT22;56302;52.322;5.926;2023-04-28T01:14:59;7.10;72.10
69189;DHT22;56302;52.322;5.926;2023-04-28T01:17:25;7.10;71.90
69189;DHT22;56302;52.322;5.926;2023-04-28T01:19:51;6.90;72.40
69189;DHT22;56302;52.322;5.926;2023-04-28T01:22:17;6.90;72.70
69189;DHT22;56302;52.322;5.926;2023-04-28T01:24:43;6.90;72.70
69189;DHT22;56302;52.322;5.926;2023-04-28T01:27:09;6.90;72.40
69189;DHT22;56302;52.322;5.926;2023-04-28T01:29:34;6.90;72.60
69189;DHT22;56302;52.322;5.926;2023-04-28T01:32:00;6.90;72.60
69189;DHT22;56302;52.322;5.926;2023-04-28T01:34:25;6.80;73.10
69189;DHT22;56302;52.322;5.926;2023-04-28T01:36:51;6.80;73.00
69189;DHT22;56302;52.322;5.926;2023-04-28T01:39:16;6.70;73.00
69189;DHT22;56302;52.322;5.926;2023-04-28T01:41:42;6.80;73.40
69189;DHT22;56302;52.322;5.926;2023-04-28T01:44:07;6.70;74.10
69189;DHT22;56302;52.322;5.926;2023-04-28T01:46:33;6.70;73.90
69189;DHT22;56302;52.322;5.926;2023-04-28T01:48:59;6.70;73.40
69189;DHT22;56302;52.322;5.926;2023-04-28T01:51:25;6.70;73.60
69189;DHT22;56302;52.322;5.926;2023-04-28T01:53:51;6.70;74.40
69189;DHT22;56302;52.322;5.926;2023-04-28T01:56:17;6.70;73.80
69189;DHT22;56302;52.322;5.926;2023-04-28T01:58:42;6.70;73.40
69189;DHT22;56302;52.322;5.926;2023-04-28T02:01:08;6.70;73.40
69189;DHT22;56302;52.322;5.926;2023-04-28T02:03:33;6.80;73.70
69189;DHT22;56302;52.322;5.926;2023-04-28T02:05:59;6.70;74.00
69189;DHT22;56302;52.322;5.926;2023-04-28T02:08:25;6.70;73.60
69189;DHT22;56302;52.322;5.926;2023-04-28T02:10:50;6.70;74.40
69189;DHT22;56302;52.322;5.926;2023-04-28T02:13:16;6.70;74.00
69189;DHT22;56302;52.322;5.926;2023-04-28T02:15:42;6.70;73.80
69189;DHT22;56302;52.322;5.926;2023-04-28T02:18:08;6.70;74.10
69189;DHT22;56302;52.322;5.926;2023-04-28T02:20:34;6.70;73.80
69189;DHT22;56302;52.322;5.926;2023-04-28T02:23:00;6.70;74.40
69189;DHT22;56302;52.322;5.926;2023-04-28T02:25:25;6.70;74.80
69189;DHT22;56302;52.322;5.926;2023-04-28T02:27:51;6.70;75.20
69189;DHT22;56302;52.322;5.926;2023-04-28T02:30:16;6.70;74.90
69189;DHT22;56302;52.322;5.926;2023-04-28T02:32:42;6.70;75.00
69189;DHT22;56302;52.322;5.926;2023-04-28T02:35:08;6.70;75.40
69189;DHT22;56302;52.322;5.926;2023-04-28T02:37:33;6.70;74.90
69189;DHT22;56302;52.322;5.926;2023-04-28T02:39:59;6.70;75.60
69189;DHT22;56302;52.322;5.926;2023-04-28T02:42:24;6.70;75.40
69189;DHT22;56302;52.322;5.926;2023-04-28T02:44:50;6.70;75.40
69189;DHT22;56302;52.322;5.926;2023-04-28T02:47:15;6.70;75.70
69189;DHT22;56302;52.322;5.926;2023-04-28T02:49:41;6.70;75.30
69189;DHT22;56302;52.322;5.926;2023-04-28T02:52:06;6.70;76.20
69189;DHT22;56302;52.322;5.926;2023-04-28T02:54:32;6.70;76.70
69189;DHT22;56302;52.322;5.926;2023-04-28T02:56:59;6.70;77.00
69189;DHT22;56302;52.322;5.926;2023-04-28T02:59:25;6.60;76.60
69189;DHT22;56302;52.322;5.926;2023-04-28T03:01:51;6.70;75.80
69189;DHT22;56302;52.322;5.926;2023-04-28T03:04:17;6.70;76.10
69189;DHT22;56302;52.322;5.926;2023-04-28T03:06:42;6.70;75.40
69189;DHT22;56302;52.322;5.926;2023-04-28T03:09:09;6.70;75.90
69189;DHT22;56302;52.322;5.926;2023-04-28T03:11:35;6.70;75.80
69189;DHT22;56302;52.322;5.926;2023-04-28T03:14:00;6.70;75.80
69189;DHT22;56302;52.322;5.926;2023-04-28T03:16:26;6.70;76.00
69189;DHT22;56302;52.322;5.926;2023-04-28T03:18:51;6.70;75.90
69189;DHT22;56302;52.322;5.926;2023-04-28T03:21:17;6.60;76.60
69189;DHT22;56302;52.322;5.926;2023-04-28T03:23:42;6.70;76.40
69189;DHT22;56302;52.322;5.926;2023-04-28T03:26:08;6.60;76.90
69189;DHT22;56302;52.322;5.926;2023-04-28T03:28:33;6.70;76.60
69189;DHT22;56302;52.322;5.926;2023-04-28T03:30:59;6.70;77.10
69189;DHT22;56302;52.322;5.926;2023-04-28T03:33:25;6.70;76.20
69189;DHT22;56302;52.322;5.926;2023-04-28T03:35:50;6.70;76.50
69189;DHT22;56302;52.322;5.926;2023-04-28T03:38:16;6.70;77.00
69189;DHT22;56302;52.322;5.926;2023-04-28T03:40:41;6.70;76.80
69189;DHT22;56302;52.322;5.926;2023-04-28T03:43:07;6.60;76.70
69189;DHT22;56302;52.322;5.926;2023-04-28T03:45:32;6.60;76.80
69189;DHT22;56302;52.322;5.926;2023-04-28T03:47:58;6.60;77.40
69189;DHT22;56302;52.322;5.926;2023-04-28T03:50:23;6.60;77.70
69189;DHT22;56302;52.322;5.926;2023-04-28T03:52:49;6.60;77.80
69189;DHT22;56302;52.322;5.926;2023-04-28T03:55:15;6.60;77.60
69189;DHT22;56302;52.322;5.926;2023-04-28T03:57:40;6.60;77.80
69189;DHT22;56302;52.322;5.926;2023-04-28T04:00:07;6.60;78.20
69189;DHT22;56302;52.322;5.926;2023-04-28T04:02:33;6.60;77.70
69189;DHT22;56302;52.322;5.926;2023-04-28T04:04:58;6.60;77.80
69189;DHT22;56302;52.322;5.926;2023-04-28T04:07:24;6.60;77.70
69189;DHT22;56302;52.322;5.926;2023-04-28T04:09:49;6.60;77.90
69189;DHT22;56302;52.322;5.926;2023-04-28T04:12:15;6.50;78.10
69189;DHT22;56302;52.322;5.926;2023-04-28T04:14:41;6.50;78.10
69189;DHT22;56302;52.322;5.926;2023-04-28T04:17:07;6.60;77.90
69189;DHT22;56302;52.322;5.926;2023-04-28T04:19:33;6.50;77.90
69189;DHT22;56302;52.322;5.926;2023-04-28T04:21:58;6.50;78.30
69189;DHT22;56302;52.322;5.926;2023-04-28T04:24:24;6.50;78.40
69189;DHT22;56302;52.322;5.926;2023-04-28T04:26:49;6.50;78.20
69189;DHT22;56302;52.322;5.926;2023-04-28T04:29:15;6.50;78.20
69189;DHT22;56302;52.322;5.926;2023-04-28T04:31:40;6.60;77.70
69189;DHT22;56302;52.322;5.926;2023-04-28T04:34:06;6.60;77.70
69189;DHT22;56302;52.322;5.926;2023-04-28T04:36:32;6.60;78.00
69189;DHT22;56302;52.322;5.926;2023-04-28T04:38:57;6.60;77.60
69189;DHT22;56302;52.322;5.926;2023-04-28T04:41:25;6.70;76.80
69189;DHT22;56302;52.322;5.926;2023-04-28T04:43:50;6.70;77.40
69189;DHT22;56302;52.322;5.926;2023-04-28T04:46:16;6.70;77.50
69189;DHT22;56302;52.322;5.926;2023-04-28T04:48:41;6.70;77.30
69189;DHT22;56302;52.322;5.926;2023-04-28T04:51:07;6.70;77.40
69189;DHT22;56302;52.322;5.926;2023-04-28T04:53:33;6.80;76.60
69189;DHT22;56302;52.322;5.926;2023-04-28T04:55:59;6.80;77.30
69189;DHT22;56302;52.322;5.926;2023-04-28T04:58:24;6.80;76.70
69189;DHT22;56302;52.322;5.926;2023-04-28T05:00:50;6.80;76.80
69189;DHT22;56302;52.322;5.926;2023-04-28T05:03:16;6.80;76.80
69189;DHT22;56302;52.322;5.926;2023-04-28T05:05:41;6.80;77.00
69189;DHT22;56302;52.322;5.926;2023-04-28T05:08:07;6.90;76.60
69189;DHT22;56302;52.322;5.926;2023-04-28T05:10:32;6.90;77.00
69189;DHT22;56302;52.322;5.926;2023-04-28T05:12:58;6.90;76.70
69189;DHT22;56302;52.322;5.926;2023-04-28T05:15:23;7.00;76.80
69189;DHT22;56302;52.322;5.926;2023-04-28T05:17:49;7.00;76.40
69189;DHT22;56302;52.322;5.926;2023-04-28T05:20:15;7.00;76.80
69189;DHT22;56302;52.322;5.926;2023-04-28T05:22:40;7.00;75.40
69189;DHT22;56302;52.322;5.926;2023-04-28T05:25:06;7.10;75.60
69189;DHT22;56302;52.322;5.926;2023-04-28T05:27:32;7.10;75.30
69189;DHT22;56302;52.322;5.926;2023-04-28T05:29:57;7.10;75.30
69189;DHT22;56302;52.322;5.926;2023-04-28T05:32:24;7.20;75.40
69189;DHT22;56302;52.322;5.926;2023-04-28T05:34:49;7.20;74.90
69189;DHT22;56302;52.322;5.926;2023-04-28T05:37:15;7.20;74.30
69189;DHT22;56302;52.322;5.926;2023-04-28T05:39:41;7.20;74.40
69189;DHT22;56302;52.322;5.926;2023-04-28T05:42:06;7.30;74.90
69189;DHT22;56302;52.322;5.926;2023-04-28T05:44:32;7.30;74.60
69189;DHT22;56302;52.322;5.926;2023-04-28T05:46:57;7.30;75.20
69189;DHT22;56302;52.322;5.926;2023-04-28T05:49:23;7.30;74.40
69189;DHT22;56302;52.322;5.926;2023-04-28T05:51:48;7.40;74.80
69189;DHT22;56302;52.322;5.926;2023-04-28T05:54:14;7.40;74.50
69189;DHT22;56302;52.322;5.926;2023-04-28T05:56:40;7.40;74.90
69189;DHT22;56302;52.322;5.926;2023-04-28T05:59:05;7.40;74.30
69189;DHT22;56302;52.322;5.926;2023-04-28T06:01:31;7.40;74.50
69189;DHT22;56302;52.322;5.926;2023-04-28T06:03:57;7.50;75.50
69189;DHT22;56302;52.322;5.926;2023-04-28T06:06:23;7.50;75.90
69189;DHT22;56302;52.322;5.926;2023-04-28T06:08:49;7.50;75.50
69189;DHT22;56302;52.322;5.926;2023-04-28T06:11:14;7.50;75.70
69189;DHT22;56302;52.322;5.926;2023-04-28T06:13:40;7.50;75.20
69189;DHT22;56302;52.322;5.926;2023-04-28T06:16:06;7.50;75.50
69189;DHT22;56302;52.322;5.926;2023-04-28T06:18:32;7.60;75.10
69189;DHT22;56302;52.322;5.926;2023-04-28T06:20:57;7.50;75.20
69189;DHT22;56302;52.322;5.926;2023-04-28T06:23:23;7.60;75.90
69189;DHT22;56302;52.322;5.926;2023-04-28T06:25:49;7.60;75.50
69189;DHT22;56302;52.322;5.926;2023-04-28T06:28:14;7.60;76.20
69189;DHT22;56302;52.322;5.926;2023-04-28T06:30:40;7.50;76.70
69189;DHT22;56302;52.322;5.926;2023-04-28T06:33:06;7.50;78.50
69189;DHT22;56302;52.322;5.926;2023-04-28T06:35:32;7.50;80.50
69189;DHT22;56302;52.322;5.926;2023-04-28T06:38:01;7.40;81.10
69189;DHT22;56302;52.322;5.926;2023-04-28T06:40:26;7.40;82.00
69189;DHT22;56302;52.322;5.926;2023-04-28T06:42:52;7.30;82.80
69189;DHT22;56302;52.322;5.926;2023-04-28T06:45:17;7.30;82.20
69189;DHT22;56302;52.322;5.926;2023-04-28T06:47:43;7.30;84.00
69189;DHT22;56302;52.322;5.926;2023-04-28T06:50:09;7.40;84.10
69189;DHT22;56302;52.322;5.926;2023-04-28T06:52:34;7.30;85.20
69189;DHT22;56302;52.322;5.926;2023-04-28T06:55:00;7.30;85.00
69189;DHT22;56302;52.322;5.926;2023-04-28T06:57:26;7.40;85.60
69189;DHT22;56302;52.322;5.926;2023-04-28T06:59:51;7.40;86.80
69189;DHT22;56302;52.322;5.926;2023-04-28T07:02:17;7.40;87.20
69189;DHT22;56302;52.322;5.926;2023-04-28T07:04:42;7.60;85.90
69189;DHT22;56302;52.322;5.926;2023-04-28T07:07:08;7.80;86.40
69189;DHT22;56302;52.322;5.926;2023-04-28T07:09:34;8.00;87.60
69189;DHT22;56302;52.322;5.926;2023-04-28T07:12:00;8.10;86.50
69189;DHT22;56302;52.322;5.926;2023-04-28T07:14:26;8.20;85.70
69189;DHT22;56302;52.322;5.926;2023-04-28T07:16:51;8.10;85.70
69189;DHT22;56302;52.322;5.926;2023-04-28T07:19:17;8.10;84.80
69189;DHT22;56302;52.322;5.926;2023-04-28T07:21:43;8.10;85.40
69189;DHT22;56302;52.322;5.926;2023-04-28T07:24:09;8.20;85.60
69189;DHT22;56302;52.322;5.926;2023-04-28T07:26:34;8.10;86.30
69189;DHT22;56302;52.322;5.926;2023-04-28T07:29:00;8.20;86.60
69189;DHT22;56302;52.322;5.926;2023-04-28T07:31:26;8.30;87.00
69189;DHT22;56302;52.322;5.926;2023-04-28T07:33:51;8.40;86.60
69189;DHT22;56302;52.322;5.926;2023-04-28T07:36:17;8.50;86.10
69189;DHT22;56302;52.322;5.926;2023-04-28T07:38:42;8.60;88.10
69189;DHT22;56302;52.322;5.926;2023-04-28T07:41:08;8.60;87.10
69189;DHT22;56302;52.322;5.926;2023-04-28T07:43:34;8.60;87.00
69189;DHT22;56302;52.322;5.926;2023-04-28T07:45:59;8.60;87.10
69189;DHT22;56302;52.322;5.926;2023-04-28T07:48:25;8.60;87.70
69189;DHT22;56302;52.322;5.926;2023-04-28T07:50:52;8.60;87.20
69189;DHT22;56302;52.322;5.926;2023-04-28T07:53:17;8.70;88.00
69189;DHT22;56302;52.322;5.926;2023-04-28T07:55:43;8.80;88.50
69189;DHT22;56302;52.322;5.926;2023-04-28T07:58:10;9.00;88.60
69189;DHT22;56302;52.322;5.926;2023-04-28T08:00:36;9.10;87.40
69189;DHT22;56302;52.322;5.926;2023-04-28T08:03:02;9.10;86.40
69189;DHT22;56302;52.322;5.926;2023-04-28T08:05:27;9.20;88.10
69189;DHT22;56302;52.322;5.926;2023-04-28T08:07:53;9.30;87.60
69189;DHT22;56302;52.322;5.926;2023-04-28T08:10:19;9.20;87.20
69189;DHT22;56302;52.322;5.926;2023-04-28T08:12:44;9.20;88.10
69189;DHT22;56302;52.322;5.926;2023-04-28T08:15:10;9.20;88.20
69189;DHT22;56302;52.322;5.926;2023-04-28T08:17:36;9.20;89.50
69189;DHT22;56302;52.322;5.926;2023-04-28T08:20:02;9.30;89.90
69189;DHT22;56302;52.322;5.926;2023-04-28T08:22:28;9.50;90.00
69189;DHT22;56302;52.322;5.926;2023-04-28T08:24:53;9.60;89.20
69189;DHT22;56302;52.322;5.926;2023-04-28T08:27:19;9.70;89.40
69189;DHT22;56302;52.322;5.926;2023-04-28T08:29:44;9.80;89.90
69189;DHT22;56302;52.322;5.926;2023-04-28T08:32:10;9.90;90.00
69189;DHT22;56302;52.322;5.926;2023-04-28T08:34:35;10.10;90.50
69189;DHT22;56302;52.322;5.926;2023-04-28T08:37:01;10.30;89.90
69189;DHT22;56302;52.322;5.926;2023-04-28T08:39:27;10.40;90.30
69189;DHT22;56302;52.322;5.926;2023-04-28T08:41:52;10.40;89.80
69189;DHT22;56302;52.322;5.926;2023-04-28T08:44:18;10.30;89.80
69189;DHT22;56302;52.322;5.926;2023-04-28T08:46:45;10.30;89.50
69189;DHT22;56302;52.322;5.926;2023-04-28T08:49:13;10.40;90.20
69189;DHT22;56302;52.322;5.926;2023-04-28T08:51:54;10.40;90.20
69189;DHT22;56302;52.322;5.926;2023-04-28T08:54:20;10.40;90.60
69189;DHT22;56302;52.322;5.926;2023-04-28T08:56:47;10.40;90.50
69189;DHT22;56302;52.322;5.926;2023-04-28T08:59:13;10.50;90.70
69189;DHT22;56302;52.322;5.926;2023-04-28T09:01:40;10.60;91.30
69189;DHT22;56302;52.322;5.926;2023-04-28T09:04:06;10.70;91.40
69189;DHT22;56302;52.322;5.926;2023-04-28T09:06:37;10.80;91.20
69189;DHT22;56302;52.322;5.926;2023-04-28T09:09:22;10.80;90.30
69189;DHT22;56302;52.322;5.926;2023-04-28T09:11:53;10.80;90.80
69189;DHT22;56302;52.322;5.926;2023-04-28T09:14:33;11.10;90.80
69189;DHT22;56302;52.322;5.926;2023-04-28T09:16:59;11.30;90.30
69189;DHT22;56302;52.322;5.926;2023-04-28T09:19:35;11.40;89.10
69189;DHT22;56302;52.322;5.926;2023-04-28T09:22:02;11.50;91.00
69189;DHT22;56302;52.322;5.926;2023-04-28T09:24:32;11.50;90.10
69189;DHT22;56302;52.322;5.926;2023-04-28T09:27:02;11.60;90.20
69189;DHT22;56302;52.322;5.926;2023-04-28T09:29:29;11.80;90.20
69189;DHT22;56302;52.322;5.926;2023-04-28T09:32:18;11.80;90.10
69189;DHT22;56302;52.322;5.926;2023-04-28T09:34:48;11.90;89.90
69189;DHT22;56302;52.322;5.926;2023-04-28T09:37:21;12.00;89.10
69189;DHT22;56302;52.322;5.926;2023-04-28T09:39:48;12.10;88.10
69189;DHT22;56302;52.322;5.926;2023-04-28T09:42:40;12.10;87.50
69189;DHT22;56302;52.322;5.926;2023-04-28T09:47:32;12.20;87.50
69189;DHT22;56302;52.322;5.926;2023-04-28T09:50:01;12.20;87.60
69189;DHT22;56302;52.322;5.926;2023-04-28T09:52:27;12.10;88.30
69189;DHT22;56302;52.322;5.926;2023-04-28T09:54:54;12.30;88.90
69189;DHT22;56302;52.322;5.926;2023-04-28T09:57:20;12.50;88.70
69189;DHT22;56302;52.322;5.926;2023-04-28T09:59:48;12.50;87.20
69189;DHT22;56302;52.322;5.926;2023-04-28T10:02:15;12.50;87.30
69189;DHT22;56302;52.322;5.926;2023-04-28T10:04:45;12.40;87.60
69189;DHT22;56302;52.322;5.926;2023-04-28T10:07:12;12.50;87.70
69189;DHT22;56302;52.322;5.926;2023-04-28T10:09:39;12.50;86.90
69189;DHT22;56302;52.322;5.926;2023-04-28T10:12:12;12.50;86.60
69189;DHT22;56302;52.322;5.926;2023-04-28T10:14:38;12.30;87.70
69189;DHT22;56302;52.322;5.926;2023-04-28T10:17:05;12.40;87.60
69189;DHT22;56302;52.322;5.926;2023-04-28T10:19:32;12.50;87.40
69189;DHT22;56302;52.322;5.926;2023-04-28T10:24:51;12.80;86.60
69189;DHT22;56302;52.322;5.926;2023-04-28T10:27:19;12.60;86.80
69189;DHT22;56302;52.322;5.926;2023-04-28T10:29:45;12.60;86.80
69189;DHT22;56302;52.322;5.926;2023-04-28T10:34:44;12.60;88.50
69189;DHT22;56302;52.322;5.926;2023-04-28T10:37:09;12.70;88.20
69189;DHT22;56302;52.322;5.926;2023-04-28T10:39:35;12.70;88.40
69189;DHT22;56302;52.322;5.926;2023-04-28T10:42:01;12.90;88.40
69189;DHT22;56302;52.322;5.926;2023-04-28T10:47:00;13.20;88.40
69189;DHT22;56302;52.322;5.926;2023-04-28T10:55:33;13.30;87.50
69189;DHT22;56302;52.322;5.926;2023-04-28T11:00:54;13.10;87.10
69189;DHT22;56302;52.322;5.926;2023-04-28T11:06:35;13.20;87.10
69189;DHT22;56302;52.322;5.926;2023-04-28T11:11:37;13.10;87.00
69189;DHT22;56302;52.322;5.926;2023-04-28T11:16:52;13.10;87.90
69189;DHT22;56302;52.322;5.926;2023-04-28T11:19:23;13.10;87.00
69189;DHT22;56302;52.322;5.926;2023-04-28T11:21:51;13.10;88.10
69189;DHT22;56302;52.322;5.926;2023-04-28T11:24:17;13.20;88.00
69189;DHT22;56302;52.322;5.926;2023-04-28T11:26:43;13.20;87.90
69189;DHT22;56302;52.322;5.926;2023-04-28T11:29:10;13.20;87.70
69189;DHT22;56302;52.322;5.926;2023-04-28T11:31:36;13.20;88.40
69189;DHT22;56302;52.322;5.926;2023-04-28T11:34:06;13.20;88.60
69189;DHT22;56302;52.322;5.926;2023-04-28T11:36:36;13.20;89.20
69189;DHT22;56302;52.322;5.926;2023-04-28T11:39:12;13.20;89.50
69189;DHT22;56302;52.322;5.926;2023-04-28T11:41:42;13.40;90.20
69189;DHT22;56302;52.322;5.926;2023-04-28T11:44:12;13.30;90.10
69189;DHT22;56302;52.322;5.926;2023-04-28T11:49:16;13.40;89.70
69189;DHT22;56302;52.322;5.926;2023-04-28T11:51:42;13.40;89.40
69189;DHT22;56302;52.322;5.926;2023-04-28T11:54:11;13.50;89.90
69189;DHT22;56302;52.322;5.926;2023-04-28T11:56:40;13.50;89.90
69189;DHT22;56302;52.322;5.926;2023-04-28T11:59:07;13.40;89.20
69189;DHT22;56302;52.322;5.926;2023-04-28T12:02:05;13.40;90.40
69189;DHT22;56302;52.322;5.926;2023-04-28T12:07:16;13.50;91.10
69189;DHT22;56302;52.322;5.926;2023-04-28T12:09:43;13.50;91.70
69189;DHT22;56302;52.322;5.926;2023-04-28T12:12:14;13.70;91.60
69189;DHT22;56302;52.322;5.926;2023-04-28T12:17:36;13.70;90.80
69189;DHT22;56302;52.322;5.926;2023-04-28T12:20:05;13.80;90.70
69189;DHT22;56302;52.322;5.926;2023-04-28T12:22:43;13.80;90.40
69189;DHT22;56302;52.322;5.926;2023-04-28T12:25:10;13.80;90.40
69189;DHT22;56302;52.322;5.926;2023-04-28T12:27:37;13.80;90.90
69189;DHT22;56302;52.322;5.926;2023-04-28T12:30:23;13.80;90.30
69189;DHT22;56302;52.322;5.926;2023-04-28T12:32:49;13.80;91.40
69189;DHT22;56302;52.322;5.926;2023-04-28T12:35:16;13.70;91.50
69189;DHT22;56302;52.322;5.926;2023-04-28T12:37:42;13.80;91.60
69189;DHT22;56302;52.322;5.926;2023-04-28T12:40:08;13.80;90.90
69189;DHT22;56302;52.322;5.926;2023-04-28T12:42:34;13.80;91.10
69189;DHT22;56302;52.322;5.926;2023-04-28T12:45:00;13.80;91.60
69189;DHT22;56302;52.322;5.926;2023-04-28T12:47:26;13.80;91.50
69189;DHT22;56302;52.322;5.926;2023-04-28T12:49:52;13.90;91.70
69189;DHT22;56302;52.322;5.926;2023-04-28T12:52:21;14.00;91.60
69189;DHT22;56302;52.322;5.926;2023-04-28T12:54:47;14.00;91.20
69189;DHT22;56302;52.322;5.926;2023-04-28T12:57:13;14.10;91.00
69189;DHT22;56302;52.322;5.926;2023-04-28T12:59:39;14.10;90.40
69189;DHT22;56302;52.322;5.926;2023-04-28T13:02:04;14.00;90.40
69189;DHT22;56302;52.322;5.926;2023-04-28T13:04:30;13.90;90.10
69189;DHT22;56302;52.322;5.926;2023-04-28T13:06:56;13.90;90.40
69189;DHT22;56302;52.322;5.926;2023-04-28T13:09:23;13.90;90.30
69189;DHT22;56302;52.322;5.926;2023-04-28T13:11:49;13.90;90.40
69189;DHT22;56302;52.322;5.926;2023-04-28T13:14:15;14.00;90.30
69189;DHT22;56302;52.322;5.926;2023-04-28T13:16:40;14.10;90.90
69189;DHT22;56302;52.322;5.926;2023-04-28T13:19:06;14.20;90.70
69189;DHT22;56302;52.322;5.926;2023-04-28T13:21:38;14.50;90.90
69189;DHT22;56302;52.322;5.926;2023-04-28T13:24:04;14.60;89.60
69189;DHT22;56302;52.322;5.926;2023-04-28T13:26:30;14.70;88.80
69189;DHT22;56302;52.322;5.926;2023-04-28T13:28:55;14.70;88.20
69189;DHT22;56302;52.322;5.926;2023-04-28T13:31:21;14.60;87.40
69189;DHT22;56302;52.322;5.926;2023-04-28T13:33:47;14.50;86.50
69189;DHT22;56302;52.322;5.926;2023-04-28T13:36:12;14.40;87.50
69189;DHT22;56302;52.322;5.926;2023-04-28T13:38:38;14.30;87.40
69189;DHT22;56302;52.322;5.926;2023-04-28T13:41:04;14.20;87.50
69189;DHT22;56302;52.322;5.926;2023-04-28T13:43:30;14.10;88.00
69189;DHT22;56302;52.322;5.926;2023-04-28T13:45:55;14.00;88.60
69189;DHT22;56302;52.322;5.926;2023-04-28T13:48:21;14.00;88.50
69189;DHT22;56302;52.322;5.926;2023-04-28T13:50:47;14.00;88.50
69189;DHT22;56302;52.322;5.926;2023-04-28T13:53:12;14.00;88.70
69189;DHT22;56302;52.322;5.926;2023-04-28T13:55:38;14.10;88.50
69189;DHT22;56302;52.322;5.926;2023-04-28T13:58:03;14.30;88.50
69189;DHT22;56302;52.322;5.926;2023-04-28T14:00:31;14.50;88.50
69189;DHT22;56302;52.322;5.926;2023-04-28T14:02:57;14.60;87.60
69189;DHT22;56302;52.322;5.926;2023-04-28T14:05:23;14.60;87.50
69189;DHT22;56302;52.322;5.926;2023-04-28T14:07:49;14.60;87.80
69189;DHT22;56302;52.322;5.926;2023-04-28T14:10:14;14.60;87.50
69189;DHT22;56302;52.322;5.926;2023-04-28T14:12:40;14.70;88.80
69189;DHT22;56302;52.322;5.926;2023-04-28T14:15:06;14.80;88.40
69189;DHT22;56302;52.322;5.926;2023-04-28T14:17:32;14.70;88.20
69189;DHT22;56302;52.322;5.926;2023-04-28T14:19:59;14.50;88.20
69189;DHT22;56302;52.322;5.926;2023-04-28T14:22:26;14.40;88.30
69189;DHT22;56302;52.322;5.926;2023-04-28T14:24:51;14.40;88.70
69189;DHT22;56302;52.322;5.926;2023-04-28T14:27:18;14.30;89.20
69189;DHT22;56302;52.322;5.926;2023-04-28T14:29:43;14.20;89.90
69189;DHT22;56302;52.322;5.926;2023-04-28T14:32:12;14.20;90.60
69189;DHT22;56302;52.322;5.926;2023-04-28T14:34:38;14.30;90.70
69189;DHT22;56302;52.322;5.926;2023-04-28T14:37:04;14.40;90.90
69189;DHT22;56302;52.322;5.926;2023-04-28T14:39:30;14.50;90.80
69189;DHT22;56302;52.322;5.926;2023-04-28T14:41:56;14.60;90.50
69189;DHT22;56302;52.322;5.926;2023-04-28T14:44:21;14.50;89.70
69189;DHT22;56302;52.322;5.926;2023-04-28T14:46:47;14.40;89.40
69189;DHT22;56302;52.322;5.926;2023-04-28T14:49:13;14.30;89.50
69189;DHT22;56302;52.322;5.926;2023-04-28T14:51:38;14.20;90.00
69189;DHT22;56302;52.322;5.926;2023-04-28T14:54:04;14.20;89.90
69189;DHT22;56302;52.322;5.926;2023-04-28T14:56:29;14.10;89.90
69189;DHT22;56302;52.322;5.926;2023-04-28T14:58:55;13.90;90.50
69189;DHT22;56302;52.322;5.926;2023-04-28T15:01:20;13.90;91.00
69189;DHT22;56302;52.322;5.926;2023-04-28T15:03:46;14.00;90.90
69189;DHT22;56302;52.322;5.926;2023-04-28T15:06:11;13.90;90.80
69189;DHT22;56302;52.322;5.926;2023-04-28T15:08:37;13.90;91.00
69189;DHT22;56302;52.322;5.926;2023-04-28T15:11:04;13.90;90.90
69189;DHT22;56302;52.322;5.926;2023-04-28T15:13:30;13.80;90.70
69189;DHT22;56302;52.322;5.926;2023-04-28T15:15:56;13.70;90.40
69189;DHT22;56302;52.322;5.926;2023-04-28T15:18:22;13.70;91.00
69189;DHT22;56302;52.322;5.926;2023-04-28T15:20:48;13.70;90.90
69189;DHT22;56302;52.322;5.926;2023-04-28T15:23:13;13.60;90.90
69189;DHT22;56302;52.322;5.926;2023-04-28T15:25:39;13.60;91.20
69189;DHT22;56302;52.322;5.926;2023-04-28T15:28:05;13.50;91.40
69189;DHT22;56302;52.322;5.926;2023-04-28T15:30:32;13.50;91.00
69189;DHT22;56302;52.322;5.926;2023-04-28T15:32:58;13.50;90.70
69189;DHT22;56302;52.322;5.926;2023-04-28T15:35:23;13.50;90.90
69189;DHT22;56302;52.322;5.926;2023-04-28T15:37:49;13.30;91.00
69189;DHT22;56302;52.322;5.926;2023-04-28T15:40:20;13.30;90.90
69189;DHT22;56302;52.322;5.926;2023-04-28T15:42:46;13.30;91.00
69189;DHT22;56302;52.322;5.926;2023-04-28T15:45:18;13.20;91.20
69189;DHT22;56302;52.322;5.926;2023-04-28T15:47:46;13.30;91.30
69189;DHT22;56302;52.322;5.926;2023-04-28T15:50:12;13.20;91.40
69189;DHT22;56302;52.322;5.926;2023-04-28T15:52:42;13.30;91.10
69189;DHT22;56302;52.322;5.926;2023-04-28T15:55:12;13.40;91.00
69189;DHT22;56302;52.322;5.926;2023-04-28T15:57:38;13.40;90.40
69189;DHT22;56302;52.322;5.926;2023-04-28T16:00:05;13.50;90.50
69189;DHT22;56302;52.322;5.926;2023-04-28T16:02:31;13.50;90.30
69189;DHT22;56302;52.322;5.926;2023-04-28T16:04:56;13.50;89.90
69189;DHT22;56302;52.322;5.926;2023-04-28T16:07:24;13.40;89.80
69189;DHT22;56302;52.322;5.926;2023-04-28T16:09:49;13.30;90.20
69189;DHT22;56302;52.322;5.926;2023-04-28T16:12:16;13.30;90.20